sensor_id;sensor_type;location;lat;lon;timestamp;P1;durP1;ratioP1;P2;durP2;ratioP2
16506;SDS011;8366;51.020;7.642;2024-03-07T00:00:10;30.80;;;17.50;;
16506;SDS011;8366;51.020;7.642;2024-03-07T00:02:42;31.77;;;17.27;;
16506;SDS011;8366;51.020;7.642;2024-03-07T00:05:10;33.20;;;17.33;;
16506;SDS011;8366;51.020;7.642;2024-03-07T00:07:38;32.50;;;17.63;;
16506;SDS011;8366;51.020;7.642;2024-03-07T00:10:05;27.77;;;16.00;;
16506;SDS011;8366;51.020;7.642;2024-03-07T00:12:33;32.50;;;17.33;;
16506;SDS011;8366;51.020;7.642;2024-03-07T00:15:00;27.00;;;15.33;;
16506;SDS011;8366;51.020;7.642;2024-03-07T00:17:27;30.87;;;15.47;;
16506;SDS011;8366;51.020;7.642;2024-03-07T00:19:53;31.57;;;17.57;;
16506;SDS011;8366;51.020;7.642;2024-03-07T00:22:22;30.30;;;16.67;;
16506;SDS011;8366;51.020;7.642;2024-03-07T00:24:51;29.57;;;16.80;;
16506;SDS011;8366;51.020;7.642;2024-03-07T00:27:18;35.90;;;18.20;;
16506;SDS011;8366;51.020;7.642;2024-03-07T00:29:46;30.73;;;17.03;;
16506;SDS011;8366;51.020;7.642;2024-03-07T00:32:17;31.07;;;17.07;;
16506;SDS011;8366;51.020;7.642;2024-03-07T00:34:44;27.90;;;15.87;;
16506;SDS011;8366;51.020;7.642;2024-03-07T00:37:10;29.50;;;15.80;;
16506;SDS011;8366;51.020;7.642;2024-03-07T00:39:39;26.77;;;14.43;;
16506;SDS011;8366;51.020;7.642;2024-03-07T00:42:06;27.27;;;15.30;;
16506;SDS011;8366;51.020;7.642;2024-03-07T00:44:32;25.97;;;14.33;;
16506;SDS011;8366;51.020;7.642;2024-03-07T00:46:59;26.03;;;14.13;;
16506;SDS011;8366;51.020;7.642;2024-03-07T00:49:27;29.37;;;15.63;;
16506;SDS011;8366;51.020;7.642;2024-03-07T00:51:53;26.77;;;15.00;;
16506;SDS011;8366;51.020;7.642;2024-03-07T00:54:20;29.10;;;15.07;;
16506;SDS011;8366;51.020;7.642;2024-03-07T00:56:49;27.80;;;14.90;;
16506;SDS011;8366;51.020;7.642;2024-03-07T00:59:15;27.13;;;14.83;;
16506;SDS011;8366;51.020;7.642;2024-03-07T01:01:42;26.60;;;15.10;;
16506;SDS011;8366;51.020;7.642;2024-03-07T01:04:08;31.60;;;15.63;;
16506;SDS011;8366;51.020;7.642;2024-03-07T01:06:35;29.77;;;16.20;;
16506;SDS011;8366;51.020;7.642;2024-03-07T01:09:02;29.97;;;15.20;;
16506;SDS011;8366;51.020;7.642;2024-03-07T01:11:29;27.30;;;14.60;;
16506;SDS011;8366;51.020;7.642;2024-03-07T01:13:57;27.70;;;15.50;;
16506;SDS011;8366;51.020;7.642;2024-03-07T01:16:24;26.13;;;14.30;;
16506;SDS011;8366;51.020;7.642;2024-03-07T01:18:50;29.83;;;15.20;;
16506;SDS011;8366;51.020;7.642;2024-03-07T01:21:17;26.77;;;14.87;;
16506;SDS011;8366;51.020;7.642;2024-03-07T01:23:43;28.23;;;15.03;;
16506;SDS011;8366;51.020;7.642;2024-03-07T01:26:10;28.20;;;15.80;;
16506;SDS011;8366;51.020;7.642;2024-03-07T01:28:37;28.73;;;14.63;;
16506;SDS011;8366;51.020;7.642;2024-03-07T01:31:05;27.00;;;14.87;;
16506;SDS011;8366;51.020;7.642;2024-03-07T01:33:31;27.80;;;15.00;;
16506;SDS011;8366;51.020;7.642;2024-03-07T01:35:58;26.93;;;14.70;;
16506;SDS011;8366;51.020;7.642;2024-03-07T01:38:24;29.37;;;15.77;;
16506;SDS011;8366;51.020;7.642;2024-03-07T01:40:51;27.40;;;15.33;;
16506;SDS011;8366;51.020;7.642;2024-03-07T01:43:19;32.03;;;15.80;;
16506;SDS011;8366;51.020;7.642;2024-03-07T01:45:46;24.77;;;14.13;;
16506;SDS011;8366;51.020;7.642;2024-03-07T01:48:15;26.67;;;14.67;;
16506;SDS011;8366;51.020;7.642;2024-03-07T01:50:49;28.43;;;14.80;;
16506;SDS011;8366;51.020;7.642;2024-03-07T01:53:16;28.87;;;15.53;;
16506;SDS011;8366;51.020;7.642;2024-03-07T01:55:42;31.77;;;15.77;;
16506;SDS011;8366;51.020;7.642;2024-03-07T01:58:10;30.53;;;15.97;;
16506;SDS011;8366;51.020;7.642;2024-03-07T02:00:40;25.20;;;14.77;;
16506;SDS011;8366;51.020;7.642;2024-03-07T02:03:08;30.10;;;15.60;;
16506;SDS011;8366;51.020;7.642;2024-03-07T02:05:36;27.23;;;14.43;;
16506;SDS011;8366;51.020;7.642;2024-03-07T02:08:03;26.43;;;14.00;;
16506;SDS011;8366;51.020;7.642;2024-03-07T02:10:30;27.70;;;15.40;;
16506;SDS011;8366;51.020;7.642;2024-03-07T02:12:57;29.20;;;15.67;;
16506;SDS011;8366;51.020;7.642;2024-03-07T02:15:23;28.70;;;14.80;;
16506;SDS011;8366;51.020;7.642;2024-03-07T02:17:50;28.27;;;14.27;;
16506;SDS011;8366;51.020;7.642;2024-03-07T02:20:16;27.07;;;14.37;;
16506;SDS011;8366;51.020;7.642;2024-03-07T02:22:44;29.97;;;15.30;;
16506;SDS011;8366;51.020;7.642;2024-03-07T02:25:11;29.07;;;15.60;;
16506;SDS011;8366;51.020;7.642;2024-03-07T02:27:38;28.30;;;15.53;;
16506;SDS011;8366;51.020;7.642;2024-03-07T02:30:05;25.30;;;14.97;;
16506;SDS011;8366;51.020;7.642;2024-03-07T02:32:34;30.00;;;15.87;;
16506;SDS011;8366;51.020;7.642;2024-03-07T02:35:02;25.97;;;14.80;;
16506;SDS011;8366;51.020;7.642;2024-03-07T02:37:28;25.77;;;14.73;;
16506;SDS011;8366;51.020;7.642;2024-03-07T02:39:56;29.47;;;14.97;;
16506;SDS011;8366;51.020;7.642;2024-03-07T02:42:23;26.30;;;14.23;;
16506;SDS011;8366;51.020;7.642;2024-03-07T02:44:49;28.10;;;15.07;;
16506;SDS011;8366;51.020;7.642;2024-03-07T02:47:17;28.47;;;14.97;;
16506;SDS011;8366;51.020;7.642;2024-03-07T02:49:44;28.10;;;14.77;;
16506;SDS011;8366;51.020;7.642;2024-03-07T02:52:09;29.30;;;15.33;;
16506;SDS011;8366;51.020;7.642;2024-03-07T02:54:36;28.73;;;15.77;;
16506;SDS011;8366;51.020;7.642;2024-03-07T02:57:04;28.80;;;14.70;;
16506;SDS011;8366;51.020;7.642;2024-03-07T02:59:30;26.50;;;14.63;;
16506;SDS011;8366;51.020;7.642;2024-03-07T03:01:57;27.03;;;14.77;;
16506;SDS011;8366;51.020;7.642;2024-03-07T03:04:23;30.20;;;15.30;;
16506;SDS011;8366;51.020;7.642;2024-03-07T03:06:50;26.70;;;14.30;;
16506;SDS011;8366;51.020;7.642;2024-03-07T03:09:17;29.50;;;15.80;;
16506;SDS011;8366;51.020;7.642;2024-03-07T03:11:43;26.73;;;14.97;;
16506;SDS011;8366;51.020;7.642;2024-03-07T03:14:11;27.43;;;14.57;;
16506;SDS011;8366;51.020;7.642;2024-03-07T03:16:40;30.30;;;15.23;;
16506;SDS011;8366;51.020;7.642;2024-03-07T03:19:08;28.77;;;15.93;;
16506;SDS011;8366;51.020;7.642;2024-03-07T03:21:35;27.37;;;14.90;;
16506;SDS011;8366;51.020;7.642;2024-03-07T03:24:01;25.93;;;13.80;;
16506;SDS011;8366;51.020;7.642;2024-03-07T03:26:28;25.27;;;13.97;;
16506;SDS011;8366;51.020;7.642;2024-03-07T03:28:56;28.47;;;14.60;;
16506;SDS011;8366;51.020;7.642;2024-03-07T03:31:24;26.60;;;13.93;;
16506;SDS011;8366;51.020;7.642;2024-03-07T03:33:50;24.57;;;13.67;;
16506;SDS011;8366;51.020;7.642;2024-03-07T03:36:17;26.63;;;14.60;;
16506;SDS011;8366;51.020;7.642;2024-03-07T03:38:44;25.43;;;13.87;;
16506;SDS011;8366;51.020;7.642;2024-03-07T03:41:14;26.47;;;13.57;;
16506;SDS011;8366;51.020;7.642;2024-03-07T03:43:41;28.17;;;14.53;;
16506;SDS011;8366;51.020;7.642;2024-03-07T03:46:09;25.97;;;13.83;;
16506;SDS011;8366;51.020;7.642;2024-03-07T03:48:37;28.83;;;14.83;;
16506;SDS011;8366;51.020;7.642;2024-03-07T03:51:04;25.10;;;13.67;;
16506;SDS011;8366;51.020;7.642;2024-03-07T03:53:33;26.83;;;13.83;;
16506;SDS011;8366;51.020;7.642;2024-03-07T03:55:59;26.47;;;14.17;;
16506;SDS011;8366;51.020;7.642;2024-03-07T03:58:26;25.60;;;14.47;;
16506;SDS011;8366;51.020;7.642;2024-03-07T04:00:53;25.20;;;13.83;;
16506;SDS011;8366;51.020;7.642;2024-03-07T04:03:19;23.17;;;13.27;;
16506;SDS011;8366;51.020;7.642;2024-03-07T04:05:47;25.93;;;13.83;;
16506;SDS011;8366;51.020;7.642;2024-03-07T04:08:14;25.23;;;13.63;;
16506;SDS011;8366;51.020;7.642;2024-03-07T04:10:40;25.83;;;14.20;;
16506;SDS011;8366;51.020;7.642;2024-03-07T04:13:07;27.37;;;13.47;;
16506;SDS011;8366;51.020;7.642;2024-03-07T04:15:33;23.47;;;13.17;;
16506;SDS011;8366;51.020;7.642;2024-03-07T04:18:00;22.37;;;13.20;;
16506;SDS011;8366;51.020;7.642;2024-03-07T04:20:26;23.57;;;13.83;;
16506;SDS011;8366;51.020;7.642;2024-03-07T04:22:54;22.93;;;13.70;;
16506;SDS011;8366;51.020;7.642;2024-03-07T04:25:21;29.13;;;14.60;;
16506;SDS011;8366;51.020;7.642;2024-03-07T04:27:47;24.90;;;13.37;;
16506;SDS011;8366;51.020;7.642;2024-03-07T04:30:14;26.33;;;14.17;;
16506;SDS011;8366;51.020;7.642;2024-03-07T04:32:41;24.60;;;14.03;;
16506;SDS011;8366;51.020;7.642;2024-03-07T04:35:08;25.57;;;13.87;;
16506;SDS011;8366;51.020;7.642;2024-03-07T04:37:35;25.00;;;12.97;;
16506;SDS011;8366;51.020;7.642;2024-03-07T04:40:04;25.67;;;13.50;;
16506;SDS011;8366;51.020;7.642;2024-03-07T04:42:40;28.80;;;14.70;;
16506;SDS011;8366;51.020;7.642;2024-03-07T04:45:07;25.50;;;13.47;;
16506;SDS011;8366;51.020;7.642;2024-03-07T04:47:35;26.33;;;13.93;;
16506;SDS011;8366;51.020;7.642;2024-03-07T04:50:02;26.40;;;14.33;;
16506;SDS011;8366;51.020;7.642;2024-03-07T04:52:29;27.13;;;13.60;;
16506;SDS011;8366;51.020;7.642;2024-03-07T04:54:56;25.03;;;13.37;;
16506;SDS011;8366;51.020;7.642;2024-03-07T04:57:24;25.63;;;14.23;;
16506;SDS011;8366;51.020;7.642;2024-03-07T04:59:52;26.97;;;14.17;;
16506;SDS011;8366;51.020;7.642;2024-03-07T05:02:18;28.17;;;13.87;;
16506;SDS011;8366;51.020;7.642;2024-03-07T05:04:45;25.17;;;13.00;;
16506;SDS011;8366;51.020;7.642;2024-03-07T05:07:12;26.43;;;14.73;;
16506;SDS011;8366;51.020;7.642;2024-03-07T05:09:40;24.67;;;13.90;;
16506;SDS011;8366;51.020;7.642;2024-03-07T05:12:06;25.13;;;13.53;;
16506;SDS011;8366;51.020;7.642;2024-03-07T05:14:35;26.83;;;14.77;;
16506;SDS011;8366;51.020;7.642;2024-03-07T05:17:02;30.23;;;14.60;;
16506;SDS011;8366;51.020;7.642;2024-03-07T05:19:31;26.90;;;14.10;;
16506;SDS011;8366;51.020;7.642;2024-03-07T05:21:58;30.63;;;15.17;;
16506;SDS011;8366;51.020;7.642;2024-03-07T05:24:25;30.17;;;15.87;;
16506;SDS011;8366;51.020;7.642;2024-03-07T05:26:51;28.87;;;14.50;;
16506;SDS011;8366;51.020;7.642;2024-03-07T05:29:19;30.63;;;15.10;;
16506;SDS011;8366;51.020;7.642;2024-03-07T05:31:47;29.20;;;14.27;;
16506;SDS011;8366;51.020;7.642;2024-03-07T05:34:14;27.40;;;14.67;;
16506;SDS011;8366;51.020;7.642;2024-03-07T05:36:44;31.27;;;14.83;;
16506;SDS011;8366;51.020;7.642;2024-03-07T05:39:11;28.93;;;15.77;;
16506;SDS011;8366;51.020;7.642;2024-03-07T05:41:38;27.43;;;15.00;;
16506;SDS011;8366;51.020;7.642;2024-03-07T05:44:05;28.17;;;15.67;;
16506;SDS011;8366;51.020;7.642;2024-03-07T05:46:33;37.47;;;25.30;;
16506;SDS011;8366;51.020;7.642;2024-03-07T05:49:02;28.40;;;16.00;;
16506;SDS011;8366;51.020;7.642;2024-03-07T05:51:29;27.37;;;14.67;;
16506;SDS011;8366;51.020;7.642;2024-03-07T05:53:55;28.40;;;14.97;;
16506;SDS011;8366;51.020;7.642;2024-03-07T05:56:22;28.20;;;16.00;;
16506;SDS011;8366;51.020;7.642;2024-03-07T05:58:48;31.07;;;15.53;;
16506;SDS011;8366;51.020;7.642;2024-03-07T06:01:16;27.23;;;14.57;;
16506;SDS011;8366;51.020;7.642;2024-03-07T06:03:43;29.37;;;15.93;;
16506;SDS011;8366;51.020;7.642;2024-03-07T06:06:11;26.07;;;14.83;;
16506;SDS011;8366;51.020;7.642;2024-03-07T06:08:38;27.30;;;15.10;;
16506;SDS011;8366;51.020;7.642;2024-03-07T06:11:07;27.70;;;15.00;;
16506;SDS011;8366;51.020;7.642;2024-03-07T06:13:34;29.83;;;15.67;;
16506;SDS011;8366;51.020;7.642;2024-03-07T06:16:00;26.53;;;14.97;;
16506;SDS011;8366;51.020;7.642;2024-03-07T06:18:30;29.23;;;15.37;;
16506;SDS011;8366;51.020;7.642;2024-03-07T06:20:57;28.90;;;15.90;;
16506;SDS011;8366;51.020;7.642;2024-03-07T06:23:25;29.07;;;15.73;;
16506;SDS011;8366;51.020;7.642;2024-03-07T06:25:53;30.87;;;16.50;;
16506;SDS011;8366;51.020;7.642;2024-03-07T06:28:21;28.13;;;16.23;;
16506;SDS011;8366;51.020;7.642;2024-03-07T06:30:47;31.23;;;16.17;;
16506;SDS011;8366;51.020;7.642;2024-03-07T06:33:14;34.63;;;16.90;;
16506;SDS011;8366;51.020;7.642;2024-03-07T06:35:41;32.13;;;16.53;;
16506;SDS011;8366;51.020;7.642;2024-03-07T06:38:08;32.33;;;17.10;;
16506;SDS011;8366;51.020;7.642;2024-03-07T06:40:37;33.30;;;16.23;;
16506;SDS011;8366;51.020;7.642;2024-03-07T06:43:05;32.83;;;16.37;;
16506;SDS011;8366;51.020;7.642;2024-03-07T06:45:32;27.93;;;15.73;;
16506;SDS011;8366;51.020;7.642;2024-03-07T06:47:59;29.90;;;16.30;;
16506;SDS011;8366;51.020;7.642;2024-03-07T06:50:28;31.23;;;16.30;;
16506;SDS011;8366;51.020;7.642;2024-03-07T06:52:55;31.57;;;16.73;;
16506;SDS011;8366;51.020;7.642;2024-03-07T06:55:21;30.90;;;16.27;;
16506;SDS011;8366;51.020;7.642;2024-03-07T06:57:49;31.00;;;16.63;;
16506;SDS011;8366;51.020;7.642;2024-03-07T07:00:16;34.10;;;16.60;;
16506;SDS011;8366;51.020;7.642;2024-03-07T07:02:44;32.50;;;17.20;;
16506;SDS011;8366;51.020;7.642;2024-03-07T07:05:11;34.27;;;17.93;;
16506;SDS011;8366;51.020;7.642;2024-03-07T07:07:37;33.33;;;17.60;;
16506;SDS011;8366;51.020;7.642;2024-03-07T07:10:04;30.03;;;17.17;;
16506;SDS011;8366;51.020;7.642;2024-03-07T07:12:33;31.40;;;16.90;;
16506;SDS011;8366;51.020;7.642;2024-03-07T07:15:02;33.03;;;17.60;;
16506;SDS011;8366;51.020;7.642;2024-03-07T07:17:29;34.00;;;18.10;;
16506;SDS011;8366;51.020;7.642;2024-03-07T07:19:56;32.87;;;18.00;;
16506;SDS011;8366;51.020;7.642;2024-03-07T07:22:24;35.33;;;17.80;;
16506;SDS011;8366;51.020;7.642;2024-03-07T07:24:50;32.90;;;17.30;;
16506;SDS011;8366;51.020;7.642;2024-03-07T07:27:17;42.30;;;19.73;;
16506;SDS011;8366;51.020;7.642;2024-03-07T07:29:44;36.63;;;18.70;;
16506;SDS011;8366;51.020;7.642;2024-03-07T07:32:12;33.03;;;18.07;;
16506;SDS011;8366;51.020;7.642;2024-03-07T07:34:39;95.83;;;37.70;;
16506;SDS011;8366;51.020;7.642;2024-03-07T07:37:07;45.93;;;23.57;;
16506;SDS011;8366;51.020;7.642;2024-03-07T07:39:34;31.13;;;18.20;;
16506;SDS011;8366;51.020;7.642;2024-03-07T07:42:01;31.03;;;17.43;;
16506;SDS011;8366;51.020;7.642;2024-03-07T07:44:27;36.60;;;19.80;;
16506;SDS011;8366;51.020;7.642;2024-03-07T07:46:57;55.07;;;27.13;;
16506;SDS011;8366;51.020;7.642;2024-03-07T07:49:34;43.13;;;22.93;;
16506;SDS011;8366;51.020;7.642;2024-03-07T07:52:01;37.67;;;21.17;;
16506;SDS011;8366;51.020;7.642;2024-03-07T07:54:28;36.93;;;20.30;;
16506;SDS011;8366;51.020;7.642;2024-03-07T07:56:58;31.40;;;17.90;;
16506;SDS011;8366;51.020;7.642;2024-03-07T07:59:25;35.60;;;20.57;;
16506;SDS011;8366;51.020;7.642;2024-03-07T08:01:52;32.03;;;18.53;;
16506;SDS011;8366;51.020;7.642;2024-03-07T08:04:21;35.00;;;18.50;;
16506;SDS011;8366;51.020;7.642;2024-03-07T08:06:49;30.83;;;18.13;;
16506;SDS011;8366;51.020;7.642;2024-03-07T08:09:19;31.33;;;18.07;;
16506;SDS011;8366;51.020;7.642;2024-03-07T08:11:47;32.57;;;18.07;;
16506;SDS011;8366;51.020;7.642;2024-03-07T08:14:20;31.60;;;18.30;;
16506;SDS011;8366;51.020;7.642;2024-03-07T08:16:48;33.77;;;19.20;;
16506;SDS011;8366;51.020;7.642;2024-03-07T08:19:16;30.10;;;17.37;;
16506;SDS011;8366;51.020;7.642;2024-03-07T08:21:44;32.40;;;18.23;;
16506;SDS011;8366;51.020;7.642;2024-03-07T08:24:13;30.67;;;17.43;;
16506;SDS011;8366;51.020;7.642;2024-03-07T08:26:41;34.37;;;17.93;;
16506;SDS011;8366;51.020;7.642;2024-03-07T08:29:10;29.30;;;17.00;;
16506;SDS011;8366;51.020;7.642;2024-03-07T08:31:38;31.27;;;17.87;;
16506;SDS011;8366;51.020;7.642;2024-03-07T08:34:10;32.77;;;17.57;;
16506;SDS011;8366;51.020;7.642;2024-03-07T08:36:38;28.83;;;17.23;;
16506;SDS011;8366;51.020;7.642;2024-03-07T08:39:05;29.73;;;16.43;;
16506;SDS011;8366;51.020;7.642;2024-03-07T08:41:40;27.13;;;16.37;;
16506;SDS011;8366;51.020;7.642;2024-03-07T08:44:10;30.33;;;16.20;;
16506;SDS011;8366;51.020;7.642;2024-03-07T08:46:38;31.13;;;15.63;;
16506;SDS011;8366;51.020;7.642;2024-03-07T08:49:08;27.17;;;15.90;;
16506;SDS011;8366;51.020;7.642;2024-03-07T08:51:36;26.27;;;15.03;;
16506;SDS011;8366;51.020;7.642;2024-03-07T08:54:04;25.37;;;14.83;;
16506;SDS011;8366;51.020;7.642;2024-03-07T08:56:32;27.87;;;16.10;;
16506;SDS011;8366;51.020;7.642;2024-03-07T08:58:59;24.70;;;14.63;;
16506;SDS011;8366;51.020;7.642;2024-03-07T09:01:27;28.73;;;16.37;;
16506;SDS011;8366;51.020;7.642;2024-03-07T09:03:54;25.97;;;15.60;;
16506;SDS011;8366;51.020;7.642;2024-03-07T09:06:23;26.67;;;14.93;;
16506;SDS011;8366;51.020;7.642;2024-03-07T09:08:49;27.50;;;15.17;;
16506;SDS011;8366;51.020;7.642;2024-03-07T09:11:16;25.47;;;15.30;;
16506;SDS011;8366;51.020;7.642;2024-03-07T09:13:42;26.20;;;15.37;;
16506;SDS011;8366;51.020;7.642;2024-03-07T09:16:10;24.73;;;15.07;;
16506;SDS011;8366;51.020;7.642;2024-03-07T09:18:37;23.73;;;14.30;;
16506;SDS011;8366;51.020;7.642;2024-03-07T09:21:04;27.00;;;14.67;;
16506;SDS011;8366;51.020;7.642;2024-03-07T09:23:31;23.57;;;14.20;;
16506;SDS011;8366;51.020;7.642;2024-03-07T09:25:57;28.70;;;15.40;;
16506;SDS011;8366;51.020;7.642;2024-03-07T09:28:24;24.67;;;14.77;;
16506;SDS011;8366;51.020;7.642;2024-03-07T09:30:51;26.97;;;14.60;;
16506;SDS011;8366;51.020;7.642;2024-03-07T09:33:18;24.60;;;14.37;;
16506;SDS011;8366;51.020;7.642;2024-03-07T09:35:45;25.57;;;14.57;;
16506;SDS011;8366;51.020;7.642;2024-03-07T09:38:11;25.10;;;14.77;;
16506;SDS011;8366;51.020;7.642;2024-03-07T09:40:38;26.47;;;14.90;;
16506;SDS011;8366;51.020;7.642;2024-03-07T09:43:05;23.17;;;14.47;;
16506;SDS011;8366;51.020;7.642;2024-03-07T09:45:34;24.03;;;13.83;;
16506;SDS011;8366;51.020;7.642;2024-03-07T09:48:02;24.63;;;14.20;;
16506;SDS011;8366;51.020;7.642;2024-03-07T09:50:30;27.00;;;14.73;;
16506;SDS011;8366;51.020;7.642;2024-03-07T09:52:57;24.10;;;13.60;;
16506;SDS011;8366;51.020;7.642;2024-03-07T09:55:25;24.17;;;14.70;;
16506;SDS011;8366;51.020;7.642;2024-03-07T09:57:51;21.80;;;13.73;;
16506;SDS011;8366;51.020;7.642;2024-03-07T10:00:20;25.33;;;14.10;;
16506;SDS011;8366;51.020;7.642;2024-03-07T10:02:50;23.80;;;13.67;;
16506;SDS011;8366;51.020;7.642;2024-03-07T10:05:20;23.13;;;13.47;;
16506;SDS011;8366;51.020;7.642;2024-03-07T10:07:52;23.50;;;14.17;;
16506;SDS011;8366;51.020;7.642;2024-03-07T10:10:18;22.47;;;12.83;;
16506;SDS011;8366;51.020;7.642;2024-03-07T10:12:46;25.20;;;14.33;;
16506;SDS011;8366;51.020;7.642;2024-03-07T10:15:13;24.07;;;13.63;;
16506;SDS011;8366;51.020;7.642;2024-03-07T10:17:42;23.03;;;13.40;;
16506;SDS011;8366;51.020;7.642;2024-03-07T10:20:09;22.20;;;13.10;;
16506;SDS011;8366;51.020;7.642;2024-03-07T10:22:38;22.30;;;13.10;;
16506;SDS011;8366;51.020;7.642;2024-03-07T10:25:07;21.83;;;13.10;;
16506;SDS011;8366;51.020;7.642;2024-03-07T10:27:36;19.67;;;12.83;;
16506;SDS011;8366;51.020;7.642;2024-03-07T10:30:03;21.13;;;12.67;;
16506;SDS011;8366;51.020;7.642;2024-03-07T10:32:32;21.80;;;12.93;;
16506;SDS011;8366;51.020;7.642;2024-03-07T10:34:59;20.43;;;12.80;;
16506;SDS011;8366;51.020;7.642;2024-03-07T10:37:26;19.17;;;12.20;;
16506;SDS011;8366;51.020;7.642;2024-03-07T10:39:53;23.20;;;13.50;;
16506;SDS011;8366;51.020;7.642;2024-03-07T10:42:22;21.83;;;12.50;;
16506;SDS011;8366;51.020;7.642;2024-03-07T10:44:55;20.40;;;12.23;;
16506;SDS011;8366;51.020;7.642;2024-03-07T10:47:23;21.30;;;12.47;;
16506;SDS011;8366;51.020;7.642;2024-03-07T10:50:02;19.93;;;11.93;;
16506;SDS011;8366;51.020;7.642;2024-03-07T10:52:38;18.30;;;11.60;;
16506;SDS011;8366;51.020;7.642;2024-03-07T10:55:08;20.67;;;11.80;;
16506;SDS011;8366;51.020;7.642;2024-03-07T10:57:40;16.97;;;11.33;;
16506;SDS011;8366;51.020;7.642;2024-03-07T11:00:10;18.60;;;11.80;;
16506;SDS011;8366;51.020;7.642;2024-03-07T11:02:55;22.47;;;12.83;;
16506;SDS011;8366;51.020;7.642;2024-03-07T11:05:23;20.03;;;12.17;;
16506;SDS011;8366;51.020;7.642;2024-03-07T11:07:54;19.00;;;11.50;;
16506;SDS011;8366;51.020;7.642;2024-03-07T11:10:22;16.30;;;10.37;;
16506;SDS011;8366;51.020;7.642;2024-03-07T11:12:50;18.40;;;10.70;;
16506;SDS011;8366;51.020;7.642;2024-03-07T11:15:17;16.17;;;10.07;;
16506;SDS011;8366;51.020;7.642;2024-03-07T11:17:45;14.80;;;9.77;;
16506;SDS011;8366;51.020;7.642;2024-03-07T11:20:20;13.00;;;9.00;;
16506;SDS011;8366;51.020;7.642;2024-03-07T11:22:48;17.90;;;10.30;;
16506;SDS011;8366;51.020;7.642;2024-03-07T11:25:17;16.80;;;10.60;;
16506;SDS011;8366;51.020;7.642;2024-03-07T11:27:51;17.60;;;11.20;;
16506;SDS011;8366;51.020;7.642;2024-03-07T11:30:19;18.13;;;11.47;;
16506;SDS011;8366;51.020;7.642;2024-03-07T11:32:47;19.43;;;11.37;;
16506;SDS011;8366;51.020;7.642;2024-03-07T11:35:14;18.63;;;11.50;;
16506;SDS011;8366;51.020;7.642;2024-03-07T11:37:41;16.90;;;10.67;;
16506;SDS011;8366;51.020;7.642;2024-03-07T11:40:11;18.80;;;11.53;;
16506;SDS011;8366;51.020;7.642;2024-03-07T11:42:44;19.70;;;11.53;;
16506;SDS011;8366;51.020;7.642;2024-03-07T11:45:14;17.63;;;12.00;;
16506;SDS011;8366;51.020;7.642;2024-03-07T11:47:50;20.23;;;12.83;;
16506;SDS011;8366;51.020;7.642;2024-03-07T11:50:17;15.60;;;10.83;;
16506;SDS011;8366;51.020;7.642;2024-03-07T11:52:45;15.97;;;10.63;;
16506;SDS011;8366;51.020;7.642;2024-03-07T11:55:11;18.90;;;10.83;;
16506;SDS011;8366;51.020;7.642;2024-03-07T11:57:38;15.23;;;10.40;;
16506;SDS011;8366;51.020;7.642;2024-03-07T12:00:06;14.57;;;10.37;;
16506;SDS011;8366;51.020;7.642;2024-03-07T12:02:38;15.70;;;10.60;;
16506;SDS011;8366;51.020;7.642;2024-03-07T12:05:05;15.53;;;11.03;;
16506;SDS011;8366;51.020;7.642;2024-03-07T12:07:31;18.73;;;11.07;;
16506;SDS011;8366;51.020;7.642;2024-03-07T12:09:58;16.33;;;10.83;;
16506;SDS011;8366;51.020;7.642;2024-03-07T12:12:28;16.23;;;10.97;;
16506;SDS011;8366;51.020;7.642;2024-03-07T12:14:55;14.70;;;9.90;;
16506;SDS011;8366;51.020;7.642;2024-03-07T12:17:22;15.83;;;10.63;;
16506;SDS011;8366;51.020;7.642;2024-03-07T12:19:50;15.47;;;9.90;;
16506;SDS011;8366;51.020;7.642;2024-03-07T12:22:18;15.93;;;10.23;;
16506;SDS011;8366;51.020;7.642;2024-03-07T12:24:59;17.57;;;10.23;;
16506;SDS011;8366;51.020;7.642;2024-03-07T12:27:27;15.10;;;9.70;;
16506;SDS011;8366;51.020;7.642;2024-03-07T12:29:54;13.50;;;9.60;;
16506;SDS011;8366;51.020;7.642;2024-03-07T12:32:20;16.63;;;10.53;;
16506;SDS011;8366;51.020;7.642;2024-03-07T12:34:47;15.03;;;10.10;;
16506;SDS011;8366;51.020;7.642;2024-03-07T12:37:15;13.60;;;9.50;;
16506;SDS011;8366;51.020;7.642;2024-03-07T12:39:41;15.33;;;9.20;;
16506;SDS011;8366;51.020;7.642;2024-03-07T12:42:12;11.90;;;8.93;;
16506;SDS011;8366;51.020;7.642;2024-03-07T12:44:40;14.43;;;9.23;;
16506;SDS011;8366;51.020;7.642;2024-03-07T12:47:08;15.30;;;8.33;;
16506;SDS011;8366;51.020;7.642;2024-03-07T12:49:35;14.27;;;8.63;;
16506;SDS011;8366;51.020;7.642;2024-03-07T12:52:02;12.50;;;8.67;;
16506;SDS011;8366;51.020;7.642;2024-03-07T12:54:32;13.60;;;8.43;;
16506;SDS011;8366;51.020;7.642;2024-03-07T12:56:58;13.57;;;8.43;;
16506;SDS011;8366;51.020;7.642;2024-03-07T12:59:25;12.47;;;8.37;;
16506;SDS011;8366;51.020;7.642;2024-03-07T13:01:51;12.63;;;8.23;;
16506;SDS011;8366;51.020;7.642;2024-03-07T13:04:19;11.73;;;7.90;;
16506;SDS011;8366;51.020;7.642;2024-03-07T13:06:45;13.90;;;9.33;;
16506;SDS011;8366;51.020;7.642;2024-03-07T13:09:12;13.00;;;8.87;;
16506;SDS011;8366;51.020;7.642;2024-03-07T13:11:40;24.40;;;13.97;;
16506;SDS011;8366;51.020;7.642;2024-03-07T13:14:11;15.07;;;9.97;;
16506;SDS011;8366;51.020;7.642;2024-03-07T13:16:38;15.03;;;9.10;;
16506;SDS011;8366;51.020;7.642;2024-03-07T13:19:08;15.27;;;9.83;;
16506;SDS011;8366;51.020;7.642;2024-03-07T13:21:37;15.80;;;9.60;;
16506;SDS011;8366;51.020;7.642;2024-03-07T13:24:04;15.43;;;8.97;;
16506;SDS011;8366;51.020;7.642;2024-03-07T13:26:31;15.80;;;10.10;;
16506;SDS011;8366;51.020;7.642;2024-03-07T13:28:59;14.10;;;9.20;;
16506;SDS011;8366;51.020;7.642;2024-03-07T13:31:26;13.77;;;9.20;;
16506;SDS011;8366;51.020;7.642;2024-03-07T13:33:53;13.03;;;9.60;;
16506;SDS011;8366;51.020;7.642;2024-03-07T13:36:20;16.13;;;9.57;;
16506;SDS011;8366;51.020;7.642;2024-03-07T13:38:50;15.07;;;9.27;;
16506;SDS011;8366;51.020;7.642;2024-03-07T13:41:17;14.47;;;8.60;;
16506;SDS011;8366;51.020;7.642;2024-03-07T13:43:44;14.97;;;9.57;;
16506;SDS011;8366;51.020;7.642;2024-03-07T13:46:12;13.80;;;8.97;;
16506;SDS011;8366;51.020;7.642;2024-03-07T13:48:39;16.43;;;9.50;;
16506;SDS011;8366;51.020;7.642;2024-03-07T13:51:07;14.23;;;8.87;;
16506;SDS011;8366;51.020;7.642;2024-03-07T13:53:34;14.27;;;8.93;;
16506;SDS011;8366;51.020;7.642;2024-03-07T13:56:22;14.67;;;9.13;;
16506;SDS011;8366;51.020;7.642;2024-03-07T13:59:07;14.70;;;9.07;;
16506;SDS011;8366;51.020;7.642;2024-03-07T14:01:45;16.87;;;10.20;;
16506;SDS011;8366;51.020;7.642;2024-03-07T14:04:32;22.57;;;13.47;;
16506;SDS011;8366;51.020;7.642;2024-03-07T14:07:15;18.67;;;11.50;;
16506;SDS011;8366;51.020;7.642;2024-03-07T14:09:58;17.10;;;9.53;;
16506;SDS011;8366;51.020;7.642;2024-03-07T14:12:55;19.50;;;10.17;;
16506;SDS011;8366;51.020;7.642;2024-03-07T14:18:49;18.73;;;10.50;;
16506;SDS011;8366;51.020;7.642;2024-03-07T14:21:45;18.67;;;10.17;;
16506;SDS011;8366;51.020;7.642;2024-03-07T14:27:23;19.93;;;10.67;;
16506;SDS011;8366;51.020;7.642;2024-03-07T14:29:57;19.03;;;10.57;;
16506;SDS011;8366;51.020;7.642;2024-03-07T14:32:35;18.70;;;10.30;;
16506;SDS011;8366;51.020;7.642;2024-03-07T14:35:07;18.50;;;10.80;;
16506;SDS011;8366;51.020;7.642;2024-03-07T14:37:49;17.17;;;10.43;;
16506;SDS011;8366;51.020;7.642;2024-03-07T14:40:19;15.87;;;9.33;;
16506;SDS011;8366;51.020;7.642;2024-03-07T14:42:49;18.97;;;10.97;;
16506;SDS011;8366;51.020;7.642;2024-03-07T14:45:18;17.97;;;10.23;;
16506;SDS011;8366;51.020;7.642;2024-03-07T14:47:46;16.20;;;10.13;;